createdAt,value
2022-11-05T00:02:10.629Z,100703.25
2022-11-05T00:04:52.522Z,100705.22
2022-11-05T00:07:41.282Z,100706.63
2022-11-05T00:10:17.157Z,100705.81
2022-11-05T00:12:59.284Z,100710.31
2022-11-05T00:15:41.323Z,100709.56
2022-11-05T00:18:10.891Z,100716.13
2022-11-05T00:20:40.432Z,100714.84
2022-11-05T00:23:24.897Z,100718.88
2022-11-05T00:25:58.488Z,100719.16
2022-11-05T00:28:28.383Z,100714.72
2022-11-05T00:31:02.907Z,100724.63
2022-11-05T00:33:32.976Z,100725.78
2022-11-05T00:36:02.380Z,100726.81
2022-11-05T00:38:35.051Z,100729.53
2022-11-05T00:41:04.567Z,100745.84
2022-11-05T00:43:46.481Z,100742.81
2022-11-05T00:46:16.149Z,100751.66
2022-11-05T00:48:58.138Z,100757.69
2022-11-05T00:51:27.579Z,100758.94
2022-11-05T00:53:59.534Z,100767.88
2022-11-05T00:56:28.940Z,100775.28
2022-11-05T00:58:58.753Z,100780.09
2022-11-05T01:01:28.251Z,100790.13
2022-11-05T01:03:57.741Z,100789.00
2022-11-05T01:06:27.115Z,100788.38
2022-11-05T01:08:59.094Z,100797.66
2022-11-05T01:11:37.753Z,100803.31
2022-11-05T01:14:09.827Z,100807.19
2022-11-05T01:16:39.590Z,100804.94
2022-11-05T01:19:11.085Z,100806.84
2022-11-05T01:21:40.531Z,100813.13
2022-11-05T01:24:13.414Z,100817.78
2022-11-05T01:26:42.824Z,100821.81
2022-11-05T01:29:13.812Z,100829.28
2022-11-05T01:31:43.443Z,100822.91
2022-11-05T01:34:12.808Z,100826.91
2022-11-05T01:36:42.240Z,100830.19
2022-11-05T01:39:14.210Z,100823.19
2022-11-05T01:41:43.592Z,100831.34
2022-11-05T01:44:42.847Z,100831.94
2022-11-05T01:47:15.927Z,100841.94
2022-11-05T01:49:45.298Z,100839.28
2022-11-05T01:52:14.699Z,100845.31
2022-11-05T01:54:47.159Z,100849.44
2022-11-05T01:57:17.719Z,100848.25
2022-11-05T01:59:50.530Z,100853.25
2022-11-05T02:02:20.768Z,100852.16
2022-11-05T02:04:53.980Z,100849.72
2022-11-05T02:07:23.899Z,100848.94
2022-11-05T02:10:00.152Z,100839.16
2022-11-05T02:12:29.827Z,100845.66
2022-11-05T02:14:59.402Z,100842.09
2022-11-05T02:17:36.892Z,100843.28
2022-11-05T02:20:26.860Z,100841.50
2022-11-05T02:23:24.680Z,100846.41
2022-11-05T02:26:29.802Z,100837.56
2022-11-05T02:29:30.237Z,100834.00
2022-11-05T02:32:04.992Z,100828.88
2022-11-05T02:34:40.072Z,100844.22
2022-11-05T02:37:14.119Z,100831.13
2022-11-05T02:39:48.626Z,100829.13
2022-11-05T02:42:27.168Z,100831.28
2022-11-05T02:45:02.581Z,100835.53
2022-11-05T02:47:40.467Z,100828.72
2022-11-05T02:50:16.022Z,100826.97
2022-11-05T02:52:49.399Z,100826.53
2022-11-05T02:55:24.532Z,100835.00
2022-11-05T02:57:53.937Z,100834.09
2022-11-05T03:00:46.880Z,100833.91
2022-11-05T03:03:22.737Z,100833.69
2022-11-05T03:06:06.624Z,100836.16
2022-11-05T03:08:46.579Z,100827.16
2022-11-05T03:11:17.216Z,100828.16
2022-11-05T03:13:53.341Z,100830.63
2022-11-05T03:16:25.440Z,100820.84
2022-11-05T03:19:02.368Z,100828.50
2022-11-05T03:21:39.798Z,100833.72
2022-11-05T03:24:13.276Z,100833.72
2022-11-05T03:26:45.084Z,100836.84
2022-11-05T03:29:22.800Z,100845.97
2022-11-05T03:31:53.088Z,100841.75
2022-11-05T03:34:29.655Z,100843.22
2022-11-05T03:37:00.120Z,100843.53
2022-11-05T03:39:32.638Z,100849.53
2022-11-05T03:42:02.844Z,100848.31
2022-11-05T03:44:37.980Z,100849.09
2022-11-05T03:47:09.074Z,100851.75
2022-11-05T03:49:46.004Z,100851.97
2022-11-05T03:52:18.999Z,100862.97
2022-11-05T03:54:48.857Z,100856.19
2022-11-05T03:57:22.279Z,100853.31
2022-11-05T03:59:53.565Z,100862.75
2022-11-05T04:02:25.879Z,100867.06
2022-11-05T04:04:58.090Z,100876.41
2022-11-05T04:07:39.988Z,100875.63
2022-11-05T04:10:22.159Z,100883.97
2022-11-05T04:13:04.048Z,100881.72
2022-11-05T04:15:53.685Z,100882.31
2022-11-05T04:18:20.518Z,100892.16
2022-11-05T04:21:04.939Z,100895.94
2022-11-05T04:23:46.847Z,100904.94
2022-11-05T04:26:16.228Z,100911.63
2022-11-05T04:28:57.859Z,100919.28
2022-11-05T04:31:27.249Z,100922.72
2022-11-05T04:33:56.607Z,100925.03
2022-11-05T04:36:28.640Z,100925.94
2022-11-05T04:38:58.034Z,100928.06
2022-11-05T04:41:27.426Z,100938.38
2022-11-05T04:43:56.829Z,100933.50
2022-11-05T04:46:26.208Z,100933.03
2022-11-05T04:48:55.574Z,100933.72
2022-11-05T04:51:24.955Z,100928.69
2022-11-05T04:53:57.180Z,100939.03
2022-11-05T04:56:27.594Z,100933.16
2022-11-05T04:58:56.975Z,100937.25
2022-11-05T05:01:27.616Z,100946.38
2022-11-05T05:03:57.447Z,100947.25
2022-11-05T05:06:26.852Z,100949.03
2022-11-05T05:08:58.859Z,100947.25
2022-11-05T05:11:28.303Z,100949.91
2022-11-05T05:13:57.678Z,100949.03
2022-11-05T05:16:28.614Z,100955.69
2022-11-05T05:18:57.998Z,100955.81
2022-11-05T05:21:39.754Z,100946.69
2022-11-05T05:24:15.142Z,100940.25
2022-11-05T05:26:46.360Z,100943.69
2022-11-05T05:29:18.906Z,100943.69
2022-11-05T05:31:48.606Z,100949.78
2022-11-05T05:34:17.999Z,100953.91
2022-11-05T05:36:47.372Z,100956.25
2022-11-05T05:39:19.396Z,100954.38
2022-11-05T05:41:48.806Z,100963.69
2022-11-05T05:44:18.168Z,100963.34
2022-11-05T05:46:47.574Z,100960.59
2022-11-05T05:49:17.153Z,100965.47
2022-11-05T05:51:46.533Z,100969.03
2022-11-05T05:54:16.041Z,100979.25
2022-11-05T05:56:48.636Z,100982.13
2022-11-05T05:59:18.156Z,100988.88
2022-11-05T06:01:47.623Z,100994.88
2022-11-05T06:04:17.087Z,100996.13
2022-11-05T06:06:47.505Z,100995.00
2022-11-05T06:09:17.182Z,100995.41
2022-11-05T06:11:49.154Z,101010.53
2022-11-05T06:14:18.597Z,101007.97
2022-11-05T06:16:48.096Z,101013.88
2022-11-05T06:19:17.488Z,101020.75
2022-11-05T06:21:46.917Z,101024.75
2022-11-05T06:24:16.319Z,101028.28
2022-11-05T06:26:45.891Z,101026.06
2022-11-05T06:29:17.867Z,101020.88
2022-11-05T06:31:47.266Z,101019.97
2022-11-05T06:34:16.635Z,101027.88
2022-11-05T06:36:46.056Z,101036.97
2022-11-05T06:39:15.731Z,101044.97
2022-11-05T06:42:12.050Z,101047.06
2022-11-05T06:44:38.128Z,101046.19
2022-11-05T06:47:07.650Z,101045.94
2022-11-05T06:49:37.036Z,101045.81
2022-11-05T06:52:06.515Z,101053.84
2022-11-05T06:54:35.927Z,101054.84
2022-11-05T06:57:06.215Z,101059.94
2022-11-05T06:59:38.180Z,101060.38
2022-11-05T07:02:07.921Z,101057.16
2022-11-05T07:04:37.368Z,101058.28
2022-11-05T07:07:06.747Z,101063.81
2022-11-05T07:09:38.510Z,101067.16
2022-11-05T07:12:08.657Z,101070.94
2022-11-05T07:14:40.709Z,101072.94
2022-11-05T07:17:10.087Z,101070.94
2022-11-05T07:19:39.703Z,101071.91
2022-11-05T07:22:09.091Z,101078.72
2022-11-05T07:24:38.499Z,101080.59
2022-11-05T07:27:07.915Z,101081.13
2022-11-05T07:29:39.900Z,101079.66
2022-11-05T07:32:09.392Z,101085.34
2022-11-05T07:34:38.783Z,101099.34
2022-11-05T07:37:08.178Z,101100.13
2022-11-05T07:39:37.591Z,101100.56
2022-11-05T07:42:07.219Z,101113.66
2022-11-05T07:44:36.661Z,101109.09
2022-11-05T07:47:08.668Z,101113.63
2022-11-05T07:49:38.083Z,101118.19
2022-11-05T07:52:07.918Z,101123.94
2022-11-05T07:54:37.287Z,101137.25
2022-11-05T07:57:06.990Z,101132.25
2022-11-05T07:59:36.493Z,101137.59
2022-11-05T08:02:09.362Z,101149.00
2022-11-05T08:04:40.303Z,101145.53
2022-11-05T08:07:09.727Z,101144.97
2022-11-05T08:09:40.975Z,101142.03
2022-11-05T08:12:10.515Z,101129.78
2022-11-05T08:14:39.934Z,101131.84
2022-11-05T08:17:17.392Z,101134.81
2022-11-05T08:19:47.972Z,101139.56
2022-11-05T08:22:17.444Z,101136.75
2022-11-05T08:24:46.910Z,101150.06
2022-11-05T08:27:16.766Z,101148.94
2022-11-05T08:29:46.211Z,101157.81
2022-11-05T08:32:18.358Z,101156.63
2022-11-05T08:34:47.780Z,101159.19
2022-11-05T08:37:17.862Z,101155.88
2022-11-05T08:39:47.316Z,101156.97
2022-11-05T08:42:16.819Z,101155.09
2022-11-05T08:44:46.312Z,101160.13
2022-11-05T08:47:18.604Z,101162.22
2022-11-05T08:49:48.068Z,101164.97
2022-11-05T08:52:17.621Z,101163.75
2022-11-05T08:54:47.307Z,101170.59
2022-11-05T08:57:16.860Z,101176.19
2022-11-05T08:59:46.296Z,101173.66
2022-11-05T09:02:18.391Z,101180.34
2022-11-05T09:04:47.910Z,101176.22
2022-11-05T09:07:17.503Z,101175.56
2022-11-05T09:09:46.888Z,101173.50
2022-11-05T09:12:16.344Z,101173.59
2022-11-05T09:14:45.823Z,101173.00
2022-11-05T09:17:21.941Z,101173.41
2022-11-05T09:19:51.838Z,101175.75
2022-11-05T09:22:21.291Z,101184.22
2022-11-05T09:24:50.893Z,101179.31
2022-11-05T09:27:20.957Z,101185.44
2022-11-05T09:29:50.454Z,101189.88
2022-11-05T09:32:23.276Z,101192.84
2022-11-05T09:34:52.893Z,101201.50
2022-11-05T09:37:22.737Z,101200.28
2022-11-05T09:39:52.248Z,101196.03
2022-11-05T09:42:23.217Z,101201.22
2022-11-05T09:44:55.966Z,101207.22
2022-11-05T09:47:31.856Z,101206.19
2022-11-05T09:50:04.120Z,101209.06
2022-11-05T09:52:34.934Z,101201.25
2022-11-05T09:55:07.270Z,101208.53
2022-11-05T09:57:45.260Z,101221.13
2022-11-05T10:00:17.437Z,101214.75
2022-11-05T10:02:53.177Z,101218.53
2022-11-05T10:05:23.921Z,101226.47
2022-11-05T10:07:56.456Z,101228.22
2022-11-05T10:10:40.860Z,101227.06
2022-11-05T10:13:20.820Z,101229.41
2022-11-05T10:15:56.849Z,101211.91
2022-11-05T10:18:31.989Z,101216.69
2022-11-05T10:21:01.932Z,101230.03
2022-11-05T10:23:31.566Z,101227.50
2022-11-05T10:26:04.472Z,101226.06
2022-11-05T10:28:35.893Z,101241.06
2022-11-05T10:31:07.683Z,101240.09
2022-11-05T10:33:44.607Z,101245.03
2022-11-05T10:36:16.885Z,101243.25
2022-11-05T10:38:46.342Z,101244.59
2022-11-05T10:41:31.784Z,101247.50
2022-11-05T10:44:08.428Z,101255.00
2022-11-05T10:46:41.550Z,101242.47
2022-11-05T10:49:22.071Z,101247.16
2022-11-05T10:51:58.932Z,101247.78
2022-11-05T10:54:34.391Z,101251.81
2022-11-05T10:57:03.860Z,101250.84
2022-11-05T10:59:33.375Z,101259.94
2022-11-05T11:02:04.695Z,101255.38
2022-11-05T11:04:38.363Z,101244.75
2022-11-05T11:07:08.136Z,101254.56
2022-11-05T11:09:39.412Z,101247.50
2022-11-05T11:12:16.896Z,101248.47
2022-11-05T11:14:53.046Z,101250.78
2022-11-05T11:17:30.166Z,101240.88
2022-11-05T11:20:22.910Z,101238.63
2022-11-05T11:23:14.537Z,101247.81
2022-11-05T11:25:49.650Z,101251.34
2022-11-05T11:28:23.846Z,101248.44
2022-11-05T11:30:55.230Z,101251.44
2022-11-05T11:33:28.806Z,101253.09
2022-11-05T11:36:01.200Z,101256.13
2022-11-05T11:38:33.199Z,101263.44
2022-11-05T11:41:08.887Z,101262.66
2022-11-05T11:43:40.597Z,101260.38
2022-11-05T11:46:16.099Z,101258.44
2022-11-05T11:48:50.147Z,101267.81
2022-11-05T11:51:32.244Z,101260.44
2022-11-05T11:54:02.843Z,101254.88
2022-11-05T11:56:32.604Z,101261.06
2022-11-05T11:59:05.769Z,101262.16
2022-11-05T12:02:08.838Z,101264.81
2022-11-05T12:04:59.145Z,101267.94
2022-11-05T12:07:42.966Z,101272.50
2022-11-05T12:10:24.220Z,101264.84
2022-11-05T12:13:05.767Z,101274.84
2022-11-05T12:15:44.482Z,101267.44
2022-11-05T12:18:18.456Z,101277.16
2022-11-05T12:21:00.612Z,101279.34
2022-11-05T12:23:43.416Z,101278.34
2022-11-05T12:26:17.771Z,101288.72
2022-11-05T12:29:17.820Z,101302.25
2022-11-05T12:31:52.853Z,101296.22
2022-11-05T12:34:35.400Z,101295.13
2022-11-05T12:37:15.166Z,101298.16
2022-11-05T12:39:55.243Z,101297.41
2022-11-05T12:42:36.276Z,101299.38
2022-11-05T12:45:13.057Z,101304.72
2022-11-05T12:47:54.743Z,101307.63
2022-11-05T12:50:28.624Z,101309.75
2022-11-05T12:53:24.260Z,101308.50
2022-11-05T12:56:01.481Z,101315.88
2022-11-05T12:58:34.064Z,101328.19
2022-11-05T13:01:06.478Z,101326.16
2022-11-05T13:03:42.871Z,101334.94
2022-11-05T13:06:15.589Z,101333.28
2022-11-05T13:08:47.881Z,101337.50
2022-11-05T13:11:25.741Z,101341.06
2022-11-05T13:14:03.243Z,101343.41
2022-11-05T13:16:36.143Z,101344.09
2022-11-05T13:19:09.987Z,101339.13
2022-11-05T13:21:41.064Z,101332.97
2022-11-05T13:24:16.191Z,101331.94
2022-11-05T13:26:51.352Z,101314.94
2022-11-05T13:29:24.664Z,101304.75
2022-11-05T13:31:57.455Z,101308.06
2022-11-05T13:34:26.920Z,101307.75
2022-11-05T13:37:11.767Z,101296.81
2022-11-05T13:39:46.662Z,101304.19
2022-11-05T13:42:51.772Z,101304.50
2022-11-05T13:45:49.228Z,101307.00
2022-11-05T13:48:51.516Z,101310.59
2022-11-05T13:51:39.474Z,101316.09
2022-11-05T13:54:49.792Z,101315.16
2022-11-05T13:57:40.060Z,101322.25
2022-11-05T14:00:19.410Z,101319.38
2022-11-05T14:02:51.764Z,101316.88
2022-11-05T14:05:32.834Z,101315.50
2022-11-05T14:08:04.199Z,101307.38
2022-11-05T14:10:38.678Z,101308.78
2022-11-05T14:13:25.227Z,101306.22
2022-11-05T14:16:01.152Z,101306.66
2022-11-05T14:18:45.412Z,101306.84
2022-11-05T14:21:34.198Z,101297.00
2022-11-05T14:24:31.649Z,101292.06
2022-11-05T14:27:31.264Z,101286.75
2022-11-05T14:30:03.451Z,101282.44
2022-11-05T14:32:46.395Z,101281.16
2022-11-05T14:35:38.891Z,101274.47
2022-11-05T14:38:20.946Z,101282.88
2022-11-05T14:40:51.887Z,101280.13
2022-11-05T14:43:23.482Z,101279.06
2022-11-05T14:46:00.796Z,101275.38
2022-11-05T14:48:38.439Z,101282.69
2022-11-05T14:51:23.117Z,101286.66
2022-11-05T14:53:52.853Z,101283.03
2022-11-05T14:56:22.564Z,101282.84
2022-11-05T14:58:53.033Z,101279.13
2022-11-05T15:01:52.675Z,101270.31
2022-11-05T15:04:32.079Z,101277.13
2022-11-05T15:07:38.732Z,101280.53
2022-11-05T15:10:12.428Z,101278.41
2022-11-05T15:12:45.128Z,101275.19
2022-11-05T15:15:27.691Z,101275.03
2022-11-05T15:18:03.768Z,101278.25
2022-11-05T15:20:41.501Z,101275.56
2022-11-05T15:23:16.272Z,101271.19
2022-11-05T15:25:53.128Z,101270.84
2022-11-05T15:28:28.175Z,101269.78
2022-11-05T15:31:02.763Z,101270.31
2022-11-05T15:33:33.116Z,101273.53
2022-11-05T15:36:23.458Z,101272.47
2022-11-05T15:39:23.076Z,101275.72
2022-11-05T15:41:43.969Z,101273.94
2022-11-05T15:44:26.567Z,101269.16
2022-11-05T15:47:10.477Z,101275.75
2022-11-05T15:49:40.065Z,101277.34
2022-11-05T15:52:14.068Z,101276.19
2022-11-05T15:54:43.723Z,101277.00
2022-11-05T15:57:27.299Z,101278.59
2022-11-05T15:59:58.003Z,101279.25
2022-11-05T16:02:34.021Z,101274.72
2022-11-05T16:05:06.736Z,101266.78
2022-11-05T16:07:39.063Z,101263.16
2022-11-05T16:10:12.753Z,101264.69
2022-11-05T16:12:42.363Z,101257.59
2022-11-05T16:15:24.069Z,101261.94
2022-11-05T16:17:57.494Z,101267.00
2022-11-05T16:20:30.655Z,101252.13
2022-11-05T16:23:03.928Z,101258.03
2022-11-05T16:25:39.231Z,101260.59
2022-11-05T16:28:20.349Z,101261.25
2022-11-05T16:30:58.025Z,101259.47
2022-11-05T16:33:28.287Z,101259.28
2022-11-05T16:35:57.784Z,101257.88
2022-11-05T16:38:30.391Z,101259.47
2022-11-05T16:41:00.405Z,101261.97
2022-11-05T16:43:30.318Z,101267.81
2022-11-05T16:46:01.560Z,101261.75
2022-11-05T16:48:31.348Z,101267.63
2022-11-05T16:51:00.853Z,101260.69
2022-11-05T16:53:32.926Z,101264.06
2022-11-05T16:56:02.439Z,101263.81
2022-11-05T16:58:32.107Z,101264.63
2022-11-05T17:01:04.677Z,101267.91
2022-11-05T17:03:34.209Z,101267.09
2022-11-05T17:06:03.767Z,101262.66
2022-11-05T17:08:35.840Z,101272.09
2022-11-05T17:11:05.823Z,101266.75
2022-11-05T17:13:35.292Z,101268.31
2022-11-05T17:16:04.693Z,101269.13
2022-11-05T17:18:34.129Z,101269.13
2022-11-05T17:21:03.625Z,101276.84
2022-11-05T17:23:35.983Z,101282.03
2022-11-05T17:26:07.434Z,101288.53
2022-11-05T17:28:37.772Z,101283.38
2022-11-05T17:31:09.507Z,101286.81
2022-11-05T17:33:39.307Z,101288.97
2022-11-05T17:36:09.665Z,101289.66
2022-11-05T17:38:41.983Z,101292.25
2022-11-05T17:41:15.040Z,101291.19
2022-11-05T17:43:44.637Z,101299.66
2022-11-05T17:46:17.063Z,101294.44
2022-11-05T17:48:46.506Z,101287.44
2022-11-05T17:51:18.506Z,101292.38
2022-11-05T17:53:51.238Z,101296.53
2022-11-05T17:56:33.571Z,101296.44
2022-11-05T17:59:04.752Z,101296.44
2022-11-05T18:01:37.391Z,101293.97
2022-11-05T18:04:08.921Z,101304.06
2022-11-05T18:06:39.470Z,101294.56
2022-11-05T18:09:12.849Z,101297.16
2022-11-05T18:11:42.992Z,101298.91
2022-11-05T18:14:13.018Z,101292.81
2022-11-05T18:16:42.524Z,101285.09
2022-11-05T18:19:12.200Z,101282.63
2022-11-05T18:21:41.649Z,101284.22
2022-11-05T18:24:13.755Z,101283.50
2022-11-05T18:26:43.120Z,101290.34
2022-11-05T18:29:12.643Z,101283.31
2022-11-05T18:31:42.132Z,101294.69
2022-11-05T18:34:12.976Z,101286.88
2022-11-05T18:36:42.468Z,101285.78
2022-11-05T18:39:14.727Z,101289.16
2022-11-05T18:41:44.240Z,101293.78
2022-11-05T18:44:16.664Z,101290.13
2022-11-05T18:47:02.413Z,101281.56
2022-11-05T18:49:32.073Z,101271.97
2022-11-05T18:52:01.542Z,101284.72
2022-11-05T18:54:33.686Z,101275.03
2022-11-05T18:57:03.223Z,101267.34
2022-11-05T18:59:38.734Z,101272.91
2022-11-05T19:02:09.897Z,101263.31
2022-11-05T19:04:39.869Z,101259.19
2022-11-05T19:07:10.191Z,101267.97
2022-11-05T19:09:42.210Z,101268.75
2022-11-05T19:12:11.782Z,101268.66
2022-11-05T19:14:42.855Z,101274.34
2022-11-05T19:17:12.412Z,101275.31
2022-11-05T19:19:41.923Z,101278.84
2022-11-05T19:22:11.424Z,101271.75
2022-11-05T19:24:43.472Z,101267.50
2022-11-05T19:27:12.843Z,101274.34
2022-11-05T19:29:42.319Z,101262.25
2022-11-05T19:32:11.863Z,101257.91
2022-11-05T19:34:41.316Z,101263.75
2022-11-05T19:37:12.329Z,101268.81
2022-11-05T19:39:44.444Z,101277.22
2022-11-05T19:42:14.166Z,101281.66
2022-11-05T19:44:44.069Z,101274.72
2022-11-05T19:47:13.637Z,101282.38
2022-11-05T19:49:43.064Z,101283.22
2022-11-05T19:52:12.479Z,101289.97
2022-11-05T19:54:46.046Z,101285.81
2022-11-05T19:57:15.903Z,101288.38
2022-11-05T19:59:45.405Z,101282.38
2022-11-05T20:02:16.354Z,101283.34
2022-11-05T20:04:46.334Z,101284.84
2022-11-05T20:07:15.727Z,101288.28
2022-11-05T20:09:48.732Z,101284.03
2022-11-05T20:12:18.163Z,101287.50
2022-11-05T20:14:48.025Z,101288.19
2022-11-05T20:17:17.485Z,101289.00
2022-11-05T20:19:46.972Z,101284.63
2022-11-05T20:22:16.492Z,101287.28
2022-11-05T20:24:48.558Z,101283.06
2022-11-05T20:27:18.440Z,101281.47
2022-11-05T20:29:47.878Z,101289.28
2022-11-05T20:32:17.419Z,101285.69
2022-11-05T20:34:47.310Z,101284.84
2022-11-05T20:37:16.772Z,101286.59
2022-11-05T20:39:49.215Z,101285.91
2022-11-05T20:42:18.695Z,101284.84
2022-11-05T20:44:48.197Z,101281.47
2022-11-05T20:47:17.720Z,101288.38
2022-11-05T20:49:47.184Z,101290.13
2022-11-05T20:52:17.372Z,101287.50
2022-11-05T20:54:49.728Z,101289.16
2022-11-05T20:57:19.228Z,101283.34
2022-11-05T20:59:48.730Z,101285.81
2022-11-05T21:02:18.285Z,101281.66
2022-11-05T21:04:47.985Z,101276.16
2022-11-05T21:07:17.419Z,101271.97
2022-11-05T21:09:49.545Z,101273.38
2022-11-05T21:12:21.124Z,101279.31
2022-11-05T21:14:51.087Z,101279.31
2022-11-05T21:17:21.043Z,101277.63
2022-11-05T21:19:50.489Z,101283.66
2022-11-05T21:22:20.054Z,101293.13
2022-11-05T21:24:52.167Z,101293.22
2022-11-05T21:27:21.575Z,101285.44
2022-11-05T21:29:51.094Z,101286.22
2022-11-05T21:32:20.669Z,101286.22
2022-11-05T21:34:50.224Z,101285.44
2022-11-05T21:37:20.358Z,101279.31
2022-11-05T21:39:54.239Z,101279.31
2022-11-05T21:42:23.907Z,101271.59
2022-11-05T21:44:57.808Z,101277.81
2022-11-05T21:47:30.539Z,101271.88
2022-11-05T21:50:00.316Z,101272.69
2022-11-05T21:52:42.364Z,101266.06
2022-11-05T21:55:27.695Z,101262.78
2022-11-05T21:58:09.917Z,101270.28
2022-11-05T22:00:40.068Z,101271.09
2022-11-05T22:03:09.520Z,101267.13
2022-11-05T22:05:39.059Z,101273.66
2022-11-05T22:08:09.390Z,101262.88
2022-11-05T22:10:41.680Z,101266.06
2022-11-05T22:13:11.152Z,101259.50
2022-11-05T22:15:40.681Z,101263.84
2022-11-05T22:18:10.529Z,101257.03
2022-11-05T22:20:41.242Z,101259.63
2022-11-05T22:23:11.497Z,101257.13
2022-11-05T22:25:43.646Z,101240.56
2022-11-05T22:28:13.717Z,101255.97
2022-11-05T22:30:43.519Z,101251.72
2022-11-05T22:33:13.045Z,101252.69
2022-11-05T22:35:43.554Z,101251.59
2022-11-05T22:38:13.431Z,101252.41
2022-11-05T22:40:45.786Z,101241.97
2022-11-05T22:43:15.240Z,101243.72
2022-11-05T22:45:45.592Z,101246.03
2022-11-05T22:48:15.492Z,101242.75
2022-11-05T22:50:45.195Z,101245.41
2022-11-05T22:53:14.580Z,101233.19
2022-11-05T22:55:46.562Z,101237.53
2022-11-05T22:58:16.112Z,101236.44
2022-11-05T23:00:45.497Z,101239.88
2022-11-05T23:03:14.976Z,101238.31
2022-11-05T23:05:44.386Z,101229.72
2022-11-05T23:08:26.433Z,101231.47
2022-11-05T23:11:10.970Z,101230.78
2022-11-05T23:13:40.412Z,101241.06
2022-11-05T23:16:22.972Z,101228.22
2022-11-05T23:19:04.861Z,101232.47
2022-11-05T23:21:46.857Z,101234.84
2022-11-05T23:24:16.340Z,101238.00
2022-11-05T23:26:54.460Z,101226.88
2022-11-05T23:29:25.317Z,101222.59
2022-11-05T23:32:07.403Z,101218.16
2022-11-05T23:34:36.840Z,101219.06
2022-11-05T23:37:19.195Z,101212.16
2022-11-05T23:39:48.853Z,101213.75
2022-11-05T23:42:33.324Z,101211.25
2022-11-05T23:45:15.196Z,101205.25
2022-11-05T23:47:57.518Z,101202.06
2022-11-05T23:50:27.105Z,101196.91
2022-11-05T23:52:56.548Z,101181.00
2022-11-05T23:55:26.650Z,101190.66
2022-11-05T23:57:58.619Z,101180.31
